Time;durP1;ratioP1;P1;durP2;ratioP2;P2;SDS_P1;SDS_P2;PMS_P1;PMS_P2;Temp;Humidity;BMP_temperature;BMP_pressure;BME280_temperature;BME280_humidity;BME280_pressure;Samples;Min_cycle;Max_cycle;Signal;HPM_P1;HPM_P2
2022/07/19 00:00:10;;;;;;;9.10;6.00;;;;;;;15.35;85.57;101844.94;4952573;29;20198;-48
2022/07/19 00:02:37;;;;;;;10.00;6.70;;;;;;;14.98;86.57;101843.78;4952530;28;20219;-49
2022/07/19 00:05:04;;;;;;;7.07;6.22;;;;;;;14.96;87.44;101834.88;4952230;29;20585;-48
2022/07/19 00:07:29;;;;;;;8.57;6.10;;;;;;;15.00;87.73;101839.19;4952902;29;20536;-48
2022/07/19 00:09:55;;;;;;;7.13;5.88;;;;;;;15.01;87.65;101843.66;4952509;29;20194;-47
2022/07/19 00:12:20;;;;;;;7.97;7.07;;;;;;;14.78;87.67;101841.84;4952875;29;20291;-50
2022/07/19 00:14:46;;;;;;;6.80;6.10;;;;;;;14.85;88.50;101838.00;4951984;29;20190;-48
2022/07/19 00:17:12;;;;;;;9.85;6.88;;;;;;;14.88;88.36;101847.78;4952878;29;20563;-49
2022/07/19 00:19:37;;;;;;;6.93;6.05;;;;;;;14.94;88.10;101845.72;4952580;29;20197;-49
2022/07/19 00:22:03;;;;;;;7.53;6.03;;;;;;;14.93;87.58;101848.47;4952589;29;20175;-49
2022/07/19 00:24:28;;;;;;;7.00;5.70;;;;;;;15.02;87.01;101848.09;4951290;29;20230;-49
2022/07/19 00:26:53;;;;;;;6.78;5.95;;;;;;;14.96;86.53;101848.34;4951627;29;20177;-50
2022/07/19 00:29:19;;;;;;;7.32;6.63;;;;;;;14.79;86.74;101849.03;4951669;29;20713;-49
2022/07/19 00:31:45;;;;;;;7.75;6.05;;;;;;;14.69;87.65;101844.91;4951552;29;20170;-50
2022/07/19 00:34:10;;;;;;;8.55;7.15;;;;;;;14.51;87.80;101849.19;4951042;29;20463;-50
2022/07/19 00:36:35;;;;;;;8.25;6.97;;;;;;;14.17;89.52;101847.78;4951795;28;20194;-50
2022/07/19 00:39:01;;;;;;;8.25;6.57;;;;;;;14.08;91.01;101845.38;4951164;29;20183;-48
2022/07/19 00:41:27;;;;;;;10.13;7.10;;;;;;;13.98;91.76;101843.03;4950641;29;20167;-51
2022/07/19 00:43:52;;;;;;;9.18;7.43;;;;;;;13.94;92.10;101852.16;4933490;29;20202;-51
2022/07/19 00:46:20;;;;;;;9.32;6.57;;;;;;;14.06;92.72;101844.56;4951613;29;20186;-48
2022/07/19 00:48:47;;;;;;;7.93;7.13;;;;;;;13.90;92.52;101839.72;4951516;29;20238;-50
2022/07/19 00:51:14;;;;;;;10.98;7.38;;;;;;;13.79;93.26;101852.72;4951378;29;20927;-48
2022/07/19 00:53:41;;;;;;;9.35;6.95;;;;;;;13.83;93.90;101846.28;4951183;28;20170;-48
2022/07/19 00:56:08;;;;;;;8.77;7.13;;;;;;;14.08;93.80;101846.28;4951175;28;20698;-48
2022/07/19 00:58:35;;;;;;;8.95;7.25;;;;;;;14.06;92.45;101849.94;4951261;29;20177;-49
2022/07/19 01:01:03;;;;;;;8.82;6.88;;;;;;;14.23;92.16;101852.91;4966247;28;20282;-50
2022/07/19 01:03:29;;;;;;;7.40;6.70;;;;;;;14.30;91.49;101854.47;4950709;29;20298;-50
2022/07/19 01:05:55;;;;;;;7.00;6.30;;;;;;;14.29;90.80;101852.69;4951058;29;20210;-48
2022/07/19 01:08:20;;;;;;;8.45;6.35;;;;;;;14.32;90.32;101859.78;4951017;29;20181;-48
2022/07/19 01:10:46;;;;;;;9.05;6.90;;;;;;;14.30;89.80;101846.38;4951544;28;20210;-49
2022/07/19 01:13:14;;;;;;;9.50;6.60;;;;;;;14.24;89.38;101848.44;4949682;29;20170;-49
2022/07/19 01:15:41;;;;;;;7.70;6.22;;;;;;;14.09;89.46;101856.13;4949635;29;20643;-50
2022/07/19 01:18:07;;;;;;;8.85;6.03;;;;;;;14.06;90.04;101858.94;4951127;29;20174;-50
2022/07/19 01:20:33;;;;;;;7.60;6.68;;;;;;;14.03;90.24;101850.94;4951275;28;20263;-50
2022/07/19 01:22:59;;;;;;;8.57;6.50;;;;;;;13.99;90.01;101862.78;4933751;29;20178;-49
2022/07/19 01:25:27;;;;;;;9.07;6.80;;;;;;;13.88;90.43;101856.88;4912197;29;1147072;-48
2022/07/19 01:27:52;;;;;;;7.50;6.57;;;;;;;13.59;91.30;101856.97;4951457;29;20191;-50
2022/07/19 01:30:21;;;;;;;8.48;6.50;;;;;;;13.48;92.49;101856.47;4934649;29;20206;-50
2022/07/19 01:32:48;;;;;;;7.50;6.70;;;;;;;13.33;93.30;101854.28;4951572;29;20542;-49
2022/07/19 01:35:14;;;;;;;8.40;6.80;;;;;;;13.18;94.21;101848.47;4951268;28;20179;-49
2022/07/19 01:37:40;;;;;;;9.75;6.47;;;;;;;13.12;95.17;101859.41;4945138;28;20182;-49
2022/07/19 01:40:09;;;;;;;10.93;7.18;;;;;;;13.07;95.93;101853.28;4961079;28;20293;-49
2022/07/19 01:42:35;;;;;;;7.53;6.70;;;;;;;13.14;96.40;101853.97;4970789;28;20193;-49
2022/07/19 01:45:00;;;;;;;7.95;6.50;;;;;;;13.23;96.18;101847.41;4970047;28;20305;-50
2022/07/19 01:47:26;;;;;;;7.47;6.30;;;;;;;13.20;95.81;101849.25;4970528;28;20172;-50
2022/07/19 01:49:52;;;;;;;7.03;6.15;;;;;;;13.19;95.46;101847.53;4970352;28;20194;-49
2022/07/19 01:52:17;;;;;;;6.63;5.80;;;;;;;13.17;95.76;101848.50;4970895;28;20180;-49
2022/07/19 01:54:43;;;;;;;8.57;6.43;;;;;;;13.02;95.95;101843.63;4970292;28;20777;-50
2022/07/19 01:57:08;;;;;;;8.15;6.60;;;;;;;12.89;96.53;101848.50;4970735;28;20179;-50
2022/07/19 01:59:37;;;;;;;11.57;6.18;;;;;;;12.86;97.31;101857.56;4970737;28;20286;-49
2022/07/19 02:02:03;;;;;;;7.20;6.20;;;;;;;12.89;97.78;101846.69;4970560;28;20249;-50
2022/07/19 02:04:29;;;;;;;7.13;6.40;;;;;;;13.03;97.59;101856.13;4970103;28;20194;-49
2022/07/19 02:06:54;;;;;;;6.95;5.85;;;;;;;13.14;96.98;101857.56;4970547;28;20236;-49
2022/07/19 02:09:20;;;;;;;8.82;6.47;;;;;;;13.26;96.49;101847.31;4971075;28;20311;-51
2022/07/19 02:11:45;;;;;;;7.43;6.63;;;;;;;13.20;95.55;101854.66;4970648;28;20177;-49
2022/07/19 02:14:10;;;;;;;10.00;6.13;;;;;;;12.98;95.26;101856.28;4970139;28;20170;-50
2022/07/19 02:16:37;;;;;;;7.72;6.10;;;;;;;13.09;95.75;101855.94;4970775;28;20166;-48
2022/07/19 02:19:03;;;;;;;6.45;5.82;;;;;;;13.14;95.09;101852.19;4970414;28;20292;-51
2022/07/19 02:21:29;;;;;;;6.07;5.47;;;;;;;13.24;94.86;101858.13;4970749;28;20260;-51
2022/07/19 02:23:55;;;;;;;10.07;6.30;;;;;;;12.96;94.01;101853.63;4955977;28;20493;-50
2022/07/19 02:26:20;;;;;;;7.40;5.88;;;;;;;12.99;94.38;101855.38;4953699;29;20225;-49
2022/07/19 02:28:46;;;;;;;8.40;5.75;;;;;;;12.93;94.39;101848.34;4954831;29;20206;-51
2022/07/19 02:31:12;;;;;;;6.57;5.80;;;;;;;12.87;94.86;101856.63;4954745;29;20642;-51
2022/07/19 02:33:37;;;;;;;9.77;6.82;;;;;;;12.93;95.13;101855.56;4954038;29;20665;-51
2022/07/19 02:36:06;;;;;;;8.60;5.70;;;;;;;13.03;95.10;101859.72;4954597;29;20163;-51
2022/07/19 02:38:32;;;;;;;8.07;5.68;;;;;;;12.86;94.12;101859.38;4954314;29;20679;-49
2022/07/19 02:40:57;;;;;;;7.88;6.32;;;;;;;12.73;94.94;101867.81;4954768;29;20189;-49
2022/07/19 02:43:23;;;;;;;8.07;6.47;;;;;;;12.69;95.18;101868.84;4953989;29;20712;-50
2022/07/19 02:45:48;;;;;;;7.47;6.32;;;;;;;12.64;95.28;101872.56;4954314;29;20272;-54
2022/07/19 02:48:14;;;;;;;9.43;6.28;;;;;;;12.64;95.74;101861.81;4954401;29;20187;-52
2022/07/19 02:50:40;;;;;;;10.18;6.22;;;;;;;12.63;95.79;101869.00;4954344;29;20203;-52
2022/07/19 02:53:06;;;;;;;7.80;6.05;;;;;;;12.53;95.81;101867.53;4954195;29;20523;-52
2022/07/19 02:55:31;;;;;;;11.10;5.93;;;;;;;12.46;96.22;101871.31;4953959;29;20223;-53
2022/07/19 02:57:57;;;;;;;7.53;6.30;;;;;;;12.41;96.49;101868.78;4954173;29;20194;-54
2022/07/19 03:00:22;;;;;;;7.95;6.10;;;;;;;12.40;96.97;101860.75;4954002;29;20565;-52
2022/07/19 03:02:48;;;;;;;7.55;6.05;;;;;;;12.50;97.01;101863.13;4953570;29;20179;-52
2022/07/19 03:05:13;;;;;;;8.65;6.00;;;;;;;12.50;96.57;101873.88;4953454;29;20206;-51
2022/07/19 03:07:39;;;;;;;10.40;7.00;;;;;;;12.36;96.08;101862.66;4953508;29;20218;-52
2022/07/19 03:10:05;;;;;;;8.05;6.10;;;;;;;12.25;96.61;101862.97;4953625;29;20206;-51
2022/07/19 03:12:31;;;;;;;6.80;6.00;;;;;;;12.31;97.50;101868.16;4953402;29;20670;-52
2022/07/19 03:14:57;;;;;;;7.03;5.68;;;;;;;12.39;97.95;101873.31;4952998;29;20266;-53
2022/07/19 03:17:22;;;;;;;8.18;6.28;;;;;;;12.47;97.72;101856.97;4953563;29;20171;-52
2022/07/19 03:19:48;;;;;;;7.88;5.65;;;;;;;12.55;97.47;101863.88;4953294;28;20202;-52
2022/07/19 03:22:13;;;;;;;6.05;5.20;;;;;;;12.63;96.96;101871.69;4953529;28;20187;-52
2022/07/19 03:24:39;;;;;;;6.68;5.82;;;;;;;12.65;96.43;101867.16;4952148;29;20206;-51
2022/07/19 03:27:04;;;;;;;8.60;6.30;;;;;;;12.53;95.72;101867.53;4953439;29;20178;-51
2022/07/19 03:29:30;;;;;;;8.23;6.00;;;;;;;12.44;96.46;101887.50;4953148;29;20290;-51
2022/07/19 03:31:56;;;;;;;7.78;6.40;;;;;;;12.34;97.29;101881.50;4953248;29;20447;-52
2022/07/19 03:34:21;;;;;;;7.35;6.22;;;;;;;12.50;97.50;101881.06;4952508;29;20193;-52
2022/07/19 03:36:47;;;;;;;6.78;5.95;;;;;;;12.59;97.06;101886.16;4952366;28;20179;-52
2022/07/19 03:39:12;;;;;;;6.68;5.15;;;;;;;12.62;96.97;101885.22;4958246;28;20280;-54
2022/07/19 03:41:38;;;;;;;9.55;5.95;;;;;;;12.65;96.34;101888.66;4968805;28;20170;-53
2022/07/19 03:44:03;;;;;;;8.60;5.93;;;;;;;12.72;96.29;101887.53;4971240;28;20185;-52
2022/07/19 03:46:29;;;;;;;9.85;5.97;;;;;;;12.74;96.14;101893.75;4967449;28;20194;-54
2022/07/19 03:48:56;;;;;;;7.53;6.18;;;;;;;12.68;95.66;101891.28;4962808;28;20210;-54
2022/07/19 03:51:22;;;;;;;9.68;6.65;;;;;;;12.55;96.15;101895.22;4971486;28;20676;-51
2022/07/19 03:53:48;;;;;;;10.38;6.40;;;;;;;12.46;97.22;101892.81;4971877;28;20227;-54
2022/07/19 03:56:14;;;;;;;9.07;6.05;;;;;;;12.55;97.90;101889.84;4971964;28;20721;-54
2022/07/19 03:58:40;;;;;;;8.38;5.75;;;;;;;12.53;98.03;101898.00;4971608;28;20554;-52
2022/07/19 04:01:09;;;;;;;8.85;6.18;;;;;;;12.59;98.31;101891.53;4971934;28;20249;-52
2022/07/19 04:03:38;;;;;;;6.43;5.50;;;;;;;12.62;98.48;101891.47;4971658;28;20185;-54
2022/07/19 04:06:05;;;;;;;10.27;6.43;;;;;;;12.72;98.17;101889.38;4972257;28;20204;-53
2022/07/19 04:08:30;;;;;;;10.73;7.00;;;;;;;12.66;97.97;101886.84;4972125;28;20190;-53
2022/07/19 04:10:56;;;;;;;6.88;5.97;;;;;;;12.76;98.31;101881.16;4972234;28;20638;-53
2022/07/19 04:13:21;;;;;;;9.05;6.18;;;;;;;12.88;98.22;101887.06;4953941;28;20186;-51
2022/07/19 04:15:47;;;;;;;7.82;5.57;;;;;;;12.96;97.84;101880.53;4971939;28;20589;-53
2022/07/19 04:18:13;;;;;;;8.00;6.35;;;;;;;12.98;97.37;101878.69;4972153;28;20241;-52
2022/07/19 04:20:39;;;;;;;8.10;5.88;;;;;;;12.92;97.53;101880.69;4971742;28;20209;-52
2022/07/19 04:23:04;;;;;;;10.57;5.85;;;;;;;12.98;98.02;101881.38;4963776;28;20178;-50
2022/07/19 04:25:30;;;;;;;10.60;6.40;;;;;;;13.03;98.68;101886.63;4952274;29;20243;-51
2022/07/19 04:27:55;;;;;;;7.40;5.70;;;;;;;13.18;98.59;101887.94;4952402;29;20185;-50
2022/07/19 04:30:20;;;;;;;7.78;5.70;;;;;;;13.33;98.58;101887.47;4952423;29;20229;-50
2022/07/19 04:32:46;;;;;;;7.53;5.72;;;;;;;13.43;98.21;101876.41;4952186;29;20282;-48
2022/07/19 04:35:11;;;;;;;9.15;6.57;;;;;;;13.49;97.74;101873.50;4951796;29;20175;-49
2022/07/19 04:37:37;;;;;;;7.15;5.75;;;;;;;13.43;97.58;101879.97;4952187;29;20201;-49
2022/07/19 04:40:04;;;;;;;7.78;5.90;;;;;;;13.41;97.52;101875.59;4952269;29;20202;-47
2022/07/19 04:42:29;;;;;;;6.70;5.97;;;;;;;13.46;97.76;101870.91;4952184;29;20186;-47
2022/07/19 04:44:54;;;;;;;7.20;5.57;;;;;;;13.55;97.91;101866.09;4934090;29;20211;-47
2022/07/19 04:47:20;;;;;;;7.82;5.30;;;;;;;13.67;97.77;101862.13;4952068;28;20509;-48
2022/07/19 04:49:45;;;;;;;6.18;4.82;;;;;;;13.81;97.68;101856.22;4952046;29;20198;-49
2022/07/19 04:52:11;;;;;;;6.03;5.43;;;;;;;13.91;97.42;101860.38;4934767;29;20183;-49
2022/07/19 04:54:36;;;;;;;5.70;5.20;;;;;;;14.01;97.85;101856.41;4951630;29;20182;-49
2022/07/19 04:57:02;;;;;;;9.88;5.63;;;;;;;14.11;97.75;101862.34;4951758;29;20183;-47
2022/07/19 04:59:27;;;;;;;5.95;5.35;;;;;;;14.12;97.87;101858.69;4952087;29;20595;-48
2022/07/19 05:01:53;;;;;;;8.73;5.72;;;;;;;14.25;98.04;101871.72;4951949;29;20265;-48
2022/07/19 05:04:18;;;;;;;6.40;5.28;;;;;;;14.31;97.94;101858.91;4951179;29;20187;-50
2022/07/19 05:06:44;;;;;;;6.68;5.55;;;;;;;14.52;98.14;101867.09;4951789;29;20463;-48
2022/07/19 05:09:10;;;;;;;7.07;5.22;;;;;;;14.69;98.02;101855.72;4951762;29;20741;-48
2022/07/19 05:11:35;;;;;;;6.65;5.45;;;;;;;14.70;97.41;101858.34;4951869;29;20178;-46
2022/07/19 05:14:01;;;;;;;10.63;6.28;;;;;;;14.92;97.76;101858.38;4951329;29;20215;-49
2022/07/19 05:16:26;;;;;;;8.18;5.70;;;;;;;15.17;97.40;101860.09;4951854;29;20155;-49
2022/07/19 05:18:52;;;;;;;6.63;5.70;;;;;;;15.44;97.03;101867.06;4951756;29;20213;-47
2022/07/19 05:21:17;;;;;;;7.07;5.63;;;;;;;15.42;96.04;101873.47;4951704;29;20163;-48
2022/07/19 05:23:43;;;;;;;6.78;5.03;;;;;;;15.60;96.15;101871.81;4951143;29;20191;-47
2022/07/19 05:26:08;;;;;;;9.68;6.10;;;;;;;15.70;96.11;101878.59;4951470;28;20220;-46
2022/07/19 05:28:34;;;;;;;8.65;5.40;;;;;;;15.89;96.07;101869.69;4951450;29;20174;-46
2022/07/19 05:30:59;;;;;;;6.03;5.43;;;;;;;16.01;95.86;101866.47;4951935;29;20227;-47
2022/07/19 05:33:27;;;;;;;5.47;4.97;;;;;;;16.15;95.66;101871.25;4951252;29;20171;-48
2022/07/19 05:35:52;;;;;;;9.20;5.30;;;;;;;16.27;95.55;101874.28;4951801;29;20222;-47
2022/07/19 05:38:18;;;;;;;8.82;6.10;;;;;;;16.43;95.88;101870.88;4951045;29;20556;-49
2022/07/19 05:40:43;;;;;;;9.27;5.55;;;;;;;16.56;95.92;101868.47;4966363;28;20737;-48
2022/07/19 05:43:09;;;;;;;10.00;5.70;;;;;;;16.70;96.20;101865.97;4965346;28;20227;-47
2022/07/19 05:45:34;;;;;;;8.63;5.05;;;;;;;16.86;96.11;101858.94;4951500;29;20685;-48
2022/07/19 05:48:00;;;;;;;8.77;6.25;;;;;;;16.95;95.80;101860.31;4956160;28;20201;-48
2022/07/19 05:50:25;;;;;;;5.93;5.28;;;;;;;17.07;95.85;101857.00;4970357;28;20631;-49
2022/07/19 05:52:51;;;;;;;8.02;5.68;;;;;;;17.18;96.20;101855.59;4971006;28;20209;-48
2022/07/19 05:55:16;;;;;;;7.90;5.55;;;;;;;17.24;96.18;101861.59;4970582;28;20253;-49
2022/07/19 05:57:42;;;;;;;8.95;5.95;;;;;;;17.33;96.00;101865.66;4970356;28;20174;-48
2022/07/19 06:00:08;;;;;;;9.18;6.43;;;;;;;17.52;96.27;101865.63;4955036;28;20193;-46
2022/07/19 06:02:40;;;;;;;8.23;5.95;;;;;;;17.71;96.56;101869.16;4974366;28;20707;-48
2022/07/19 06:05:06;;;;;;;9.70;6.38;;;;;;;17.82;95.11;101865.91;4956711;28;20288;-46
2022/07/19 06:07:32;;;;;;;8.77;6.13;;;;;;;17.96;93.95;101865.19;4974552;28;20265;-48
2022/07/19 06:09:57;;;;;;;8.73;6.50;;;;;;;18.18;93.13;101869.47;4974096;28;20309;-47
2022/07/19 06:12:23;;;;;;;8.35;5.93;;;;;;;18.31;92.56;101867.84;4974633;28;20594;-48
2022/07/19 06:14:48;;;;;;;9.90;6.57;;;;;;;18.43;90.82;101861.75;4973703;28;20552;-48
2022/07/19 06:17:14;;;;;;;11.23;6.20;;;;;;;18.53;88.58;101871.13;4974188;28;20237;-49
2022/07/19 06:19:39;;;;;;;8.57;6.50;;;;;;;18.78;86.43;101871.63;4974202;28;20213;-48
2022/07/19 06:22:04;;;;;;;8.88;6.95;;;;;;;18.88;84.50;101872.88;4974275;28;20213;-46
2022/07/19 06:24:30;;;;;;;9.63;6.38;;;;;;;19.02;81.39;101874.81;4954403;28;20202;-48
2022/07/19 06:26:55;;;;;;;11.93;6.85;;;;;;;19.11;80.08;101867.03;4954795;29;20187;-48
2022/07/19 06:29:22;;;;;;;8.52;6.40;;;;;;;19.24;78.23;101860.84;4954838;29;20297;-48
2022/07/19 06:31:48;;;;;;;9.90;6.78;;;;;;;19.42;76.69;101865.22;4937222;29;20185;-47
2022/07/19 06:34:14;;;;;;;7.80;6.13;;;;;;;19.75;75.89;101867.81;4954470;29;20605;-50
2022/07/19 06:36:40;;;;;;;9.82;6.43;;;;;;;19.75;77.01;101875.97;4954526;29;20271;-47
2022/07/19 06:39:05;;;;;;;8.48;6.22;;;;;;;19.97;78.05;101882.81;4954485;29;20295;-48
2022/07/19 06:41:30;;;;;;;11.93;6.25;;;;;;;20.12;77.13;101881.00;4954908;29;20262;-49
2022/07/19 06:43:56;;;;;;;6.85;5.90;;;;;;;20.49;76.32;101868.69;4953767;29;20171;-48
2022/07/19 06:46:22;;;;;;;7.22;6.20;;;;;;;20.62;75.86;101877.00;4954330;29;20237;-49
2022/07/19 06:48:47;;;;;;;14.30;6.28;;;;;;;20.93;75.49;101875.88;4954533;29;20218;-45
2022/07/19 06:51:12;;;;;;;8.68;6.22;;;;;;;21.15;75.17;101869.88;4954734;29;20780;-48
2022/07/19 06:53:38;;;;;;;10.13;6.35;;;;;;;21.37;73.69;101868.44;4954061;29;20193;-48
2022/07/19 06:56:04;;;;;;;9.52;6.60;;;;;;;21.63;73.76;101877.63;4954073;29;20171;-48
2022/07/19 06:58:29;;;;;;;8.45;6.05;;;;;;;22.13;72.84;101872.38;4954297;29;20191;-49
2022/07/19 07:00:55;;;;;;;9.57;6.47;;;;;;;21.88;70.56;101876.78;4954181;29;20592;-48
2022/07/19 07:03:20;;;;;;;7.85;6.00;;;;;;;21.92;69.33;101872.00;4953964;29;20193;-48
2022/07/19 07:05:46;;;;;;;8.90;6.03;;;;;;;22.04;69.28;101873.00;4954170;29;20262;-46
2022/07/19 07:08:11;;;;;;;8.65;6.50;;;;;;;21.77;67.99;101872.06;4954088;29;20202;-48
2022/07/19 07:10:39;;;;;;;10.82;6.93;;;;;;;21.84;67.44;101874.38;4953908;28;20209;-49
2022/07/19 07:13:05;;;;;;;10.18;6.25;;;;;;;22.05;65.68;101878.34;4953588;29;20182;-47
2022/07/19 07:15:31;;;;;;;10.98;6.07;;;;;;;22.36;64.91;101868.91;4954196;29;20186;-48
2022/07/19 07:17:57;;;;;;;13.30;6.10;;;;;;;22.60;65.45;101870.84;4936535;29;20217;-47
2022/07/19 07:20:23;;;;;;;8.25;6.03;;;;;;;22.65;62.87;101865.91;4954158;29;20620;-46
2022/07/19 07:22:48;;;;;;;8.95;6.20;;;;;;;23.00;63.26;101860.63;4953764;29;20197;-48
2022/07/19 07:25:14;;;;;;;8.38;5.78;;;;;;;23.05;62.48;101857.56;4953180;29;20290;-49
2022/07/19 07:27:39;;;;;;;6.40;5.72;;;;;;;23.35;62.24;101854.38;4954203;29;20166;-47
2022/07/19 07:30:06;;;;;;;9.00;5.80;;;;;;;23.28;62.71;101849.47;4953367;29;20213;-41
2022/07/19 07:32:32;;;;;;;14.18;6.00;;;;;;;23.60;61.65;101852.50;4953980;29;20174;-43
2022/07/19 07:34:57;;;;;;;8.93;5.70;;;;;;;23.55;60.62;101851.94;4953258;29;20170;-43
2022/07/19 07:37:23;;;;;;;10.77;5.15;;;;;;;24.09;59.81;101839.59;4953902;28;20222;-43
2022/07/19 07:39:48;;;;;;;6.78;5.55;;;;;;;24.78;61.48;101834.03;4954203;29;20213;-43
2022/07/19 07:42:14;;;;;;;10.80;4.97;;;;;;;25.26;55.27;101830.97;4953646;29;20186;-44
2022/07/19 07:44:40;;;;;;;8.18;5.00;;;;;;;25.57;53.82;101826.44;4953031;29;20574;-42
2022/07/19 07:47:08;;;;;;;12.77;5.38;;;;;;;25.86;52.19;101818.41;4953366;29;20174;-43
2022/07/19 07:49:34;;;;;;;7.40;5.20;;;;;;;26.07;52.31;101825.81;4953622;29;20205;-44
2022/07/19 07:52:00;;;;;;;9.25;4.95;;;;;;;25.96;52.50;101823.16;4953411;29;20177;-43
2022/07/19 07:54:25;;;;;;;6.50;4.63;;;;;;;26.35;50.91;101823.34;4952937;28;20179;-42
2022/07/19 07:56:51;;;;;;;6.40;5.22;;;;;;;26.65;52.26;101817.84;4953822;29;20710;-44
2022/07/19 07:59:16;;;;;;;6.90;4.78;;;;;;;26.43;50.79;101813.41;4953060;29;20194;-44
2022/07/19 08:01:44;;;;;;;7.45;5.22;;;;;;;26.74;50.38;101815.28;4953589;29;20176;-44
2022/07/19 08:04:09;;;;;;;12.52;5.47;;;;;;;26.36;54.92;101822.34;4952777;29;20175;-43
2022/07/19 08:06:35;;;;;;;6.93;5.32;;;;;;;25.73;55.45;101827.88;4953113;29;20206;-42
2022/07/19 08:09:01;;;;;;;10.02;5.15;;;;;;;25.44;55.06;101823.88;4953225;29;20650;-39
2022/07/19 08:11:26;;;;;;;8.30;5.40;;;;;;;25.44;54.62;101831.25;4936153;29;20175;-42
2022/07/19 08:13:52;;;;;;;7.65;5.38;;;;;;;25.34;56.24;101825.66;4952842;29;20178;-42
2022/07/19 08:16:17;;;;;;;8.90;5.68;;;;;;;25.55;55.51;101816.63;4953035;29;20163;-41
2022/07/19 08:18:43;;;;;;;7.30;5.20;;;;;;;25.81;56.16;101809.72;4953171;29;20245;-42
2022/07/19 08:21:09;;;;;;;7.95;4.97;;;;;;;26.33;54.64;101804.28;4952605;29;20566;-43
2022/07/19 08:23:35;;;;;;;8.18;5.25;;;;;;;26.27;54.72;101813.06;4952270;28;20185;-43
2022/07/19 08:26:00;;;;;;;6.90;5.30;;;;;;;26.11;54.52;101816.31;4952984;29;20210;-43
2022/07/19 08:28:26;;;;;;;8.73;5.35;;;;;;;26.35;54.50;101805.00;4952567;29;20204;-43
2022/07/19 08:30:51;;;;;;;7.00;4.60;;;;;;;26.69;53.19;101805.56;4952737;29;20170;-42
2022/07/19 08:33:18;;;;;;;7.72;4.72;;;;;;;26.69;51.87;101801.97;4952291;29;20174;-43
2022/07/19 08:35:44;;;;;;;5.28;4.60;;;;;;;27.43;50.72;101800.66;4953088;29;20177;-42
2022/07/19 08:38:10;;;;;;;6.32;4.40;;;;;;;27.11;51.25;101799.00;4952848;29;20646;-44
2022/07/19 08:40:40;;;;;;;9.13;4.85;;;;;;;27.45;48.94;101804.13;4935604;29;20214;-47
2022/07/19 08:43:06;;;;;;;5.25;4.43;;;;;;;26.98;47.84;101807.53;4952156;29;20543;-48
2022/07/19 08:45:32;;;;;;;7.50;5.13;;;;;;;27.39;49.90;101810.22;4952326;29;20206;-49
2022/07/19 08:47:58;;;;;;;7.20;4.78;;;;;;;27.67;43.34;101791.94;4953516;29;20621;-49
2022/07/19 08:50:25;;;;;;;8.32;4.88;;;;;;;27.27;46.34;101796.59;4933665;29;20209;-49
2022/07/19 08:52:51;;;;;;;7.47;4.90;;;;;;;27.45;45.67;101799.50;4953234;29;20170;-48
2022/07/19 08:55:17;;;;;;;6.95;5.15;;;;;;;27.48;43.49;101807.44;4952584;29;20166;-48
2022/07/19 08:58:00;;;;;;;7.78;4.95;;;;;;;27.67;43.38;101806.56;4952675;29;20225;-51
2022/07/19 09:00:27;;;;;;;5.57;4.95;;;;;;;27.64;43.93;101808.72;4946633;28;20212;-48
2022/07/19 09:02:52;;;;;;;4.93;4.43;;;;;;;27.79;44.37;101801.78;4951943;29;20171;-47
2022/07/19 09:05:18;;;;;;;7.72;5.00;;;;;;;27.52;46.14;101806.13;4935332;29;20244;-47
2022/07/19 09:08:00;;;;;;;5.90;4.68;;;;;;;27.58;43.69;101799.19;4951170;29;20190;-47
2022/07/19 09:10:26;;;;;;;7.95;5.25;;;;;;;28.17;42.50;101801.88;4952460;28;20718;-48
2022/07/19 09:13:05;;;;;;;5.18;4.57;;;;;;;27.95;44.62;101795.69;4952865;29;20245;-49
2022/07/19 09:15:50;;;;;;;6.03;4.95;;;;;;;28.65;42.01;101798.06;4952092;29;20158;-47
2022/07/19 09:18:21;;;;;;;6.20;4.63;;;;;;;28.65;41.45;101801.66;4952939;29;20234;-46
2022/07/19 09:20:53;;;;;;;8.30;5.00;;;;;;;28.52;42.64;101796.50;4952795;28;20253;-48
2022/07/19 09:23:19;;;;;;;5.00;4.43;;;;;;;28.94;41.71;101784.06;4935051;29;20229;-46
2022/07/19 09:25:50;;;;;;;5.22;4.82;;;;;;;28.85;39.57;101785.88;4935285;29;20274;-47
2022/07/19 09:28:17;;;;;;;5.40;4.82;;;;;;;28.89;40.39;101784.53;4952748;29;20692;-48
2022/07/19 09:30:47;;;;;;;8.25;4.93;;;;;;;28.98;38.79;101782.75;4952809;29;20260;-48
2022/07/19 09:33:15;;;;;;;5.78;4.15;;;;;;;29.38;38.62;101787.81;4952152;29;20763;-47
2022/07/19 09:35:45;;;;;;;5.20;4.25;;;;;;;29.37;39.81;101793.50;4955356;28;20170;-48
2022/07/19 09:38:21;;;;;;;6.68;4.90;;;;;;;29.17;40.97;101792.81;4956713;29;20178;-47
2022/07/19 09:40:49;;;;;;;5.50;4.30;;;;;;;29.65;39.27;101798.91;4955926;29;20244;-50
2022/07/19 09:43:15;;;;;;;4.95;4.45;;;;;;;29.61;39.85;101791.97;4956180;29;20864;-46
2022/07/19 09:45:40;;;;;;;5.10;4.57;;;;;;;29.61;38.36;101786.44;4956449;29;20842;-48
2022/07/19 09:48:06;;;;;;;6.20;4.80;;;;;;;29.30;38.78;101789.63;4956749;29;20253;-48
2022/07/19 09:50:32;;;;;;;5.88;4.47;;;;;;;29.74;37.66;101781.41;4956088;29;20581;-47
2022/07/19 09:53:00;;;;;;;6.70;4.70;;;;;;;29.56;38.06;101778.63;4955473;29;20264;-49
2022/07/19 09:55:27;;;;;;;7.60;5.00;;;;;;;29.08;41.37;101778.03;4956129;29;20533;-48
2022/07/19 09:57:56;;;;;;;6.20;4.70;;;;;;;29.76;38.97;101782.13;4955593;29;20173;-47
2022/07/19 10:00:24;;;;;;;10.07;4.90;;;;;;;29.51;38.42;101768.06;4955753;29;20201;-46
2022/07/19 10:02:56;;;;;;;4.60;4.20;;;;;;;29.86;38.26;101769.06;4955997;29;20185;-47
2022/07/19 10:05:24;;;;;;;5.60;4.63;;;;;;;29.52;39.36;101777.25;4955301;28;20216;-47
2022/07/19 10:07:50;;;;;;;6.00;4.55;;;;;;;29.95;40.71;101781.88;4955605;29;20190;-49
2022/07/19 10:10:18;;;;;;;6.82;4.45;;;;;;;29.94;37.35;101771.03;4955347;29;20666;-47
2022/07/19 10:12:45;;;;;;;6.82;4.60;;;;;;;29.75;38.77;101775.72;4938578;29;20745;-48
2022/07/19 10:15:14;;;;;;;4.47;4.07;;;;;;;29.83;40.48;101769.41;4969839;28;20634;-48
2022/07/19 10:18:00;;;;;;;5.45;4.43;;;;;;;29.96;37.65;101769.81;4955514;29;20281;-48
2022/07/19 10:20:27;;;;;;;5.30;4.00;;;;;;;30.36;37.20;101770.25;4955431;29;20230;-47
2022/07/19 10:22:53;;;;;;;4.28;3.88;;;;;;;30.12;37.08;101774.56;4955291;29;20182;-48
2022/07/19 10:25:19;;;;;;;5.13;4.38;;;;;;;29.93;37.75;101772.03;4954963;29;20221;-49
2022/07/19 10:27:50;;;;;;;7.97;4.30;;;;;;;29.78;39.55;101769.88;4955310;29;20170;-47
2022/07/19 10:30:20;;;;;;;5.55;4.35;;;;;;;30.16;38.69;101767.69;4955516;29;20617;-48
2022/07/19 10:32:47;;;;;;;5.05;4.28;;;;;;;29.92;39.08;101765.66;4955651;29;20178;-47
2022/07/19 10:35:27;;;;;;;5.40;4.00;;;;;;;30.12;38.04;101770.94;4955184;29;20238;-46
2022/07/19 10:38:02;;;;;;;5.22;4.47;;;;;;;30.19;37.74;101759.06;4955180;29;20594;-48
2022/07/19 10:40:40;;;;;;;4.03;3.70;;;;;;;29.97;38.46;101762.41;4955130;29;20276;-48
2022/07/19 10:43:14;;;;;;;3.90;3.53;;;;;;;30.19;40.27;101750.75;4955082;29;20170;-48
2022/07/19 10:46:02;;;;;;;4.30;3.90;;;;;;;30.45;37.04;101754.53;4954787;28;20291;-49
2022/07/19 10:48:50;;;;;;;6.30;4.18;;;;;;;30.47;36.17;101750.56;4954876;29;20314;-48
2022/07/19 10:51:29;;;;;;;4.97;3.92;;;;;;;30.39;36.88;101754.19;4938160;29;20163;-48
2022/07/19 10:53:59;;;;;;;5.82;3.90;;;;;;;30.46;39.46;101759.03;4954639;29;20270;-46
2022/07/19 10:56:34;;;;;;;7.15;4.00;;;;;;;30.59;36.26;101752.00;4955223;29;20166;-49
2022/07/19 10:58:59;;;;;;;4.78;4.38;;;;;;;31.09;36.33;101744.69;4954667;29;20262;-50
2022/07/19 11:01:28;;;;;;;4.78;3.92;;;;;;;31.47;36.79;101752.56;4955400;29;20171;-48
2022/07/19 11:04:14;;;;;;;6.38;4.53;;;;;;;30.73;38.52;101753.25;4954424;29;20860;-48
2022/07/19 11:06:40;;;;;;;6.82;4.53;;;;;;;31.00;36.77;101740.19;4938366;29;20636;-47
2022/07/19 11:09:05;;;;;;;6.75;4.05;;;;;;;31.14;37.90;101744.22;4955578;29;20197;-48
2022/07/19 11:11:31;;;;;;;4.47;4.07;;;;;;;30.99;37.59;101739.34;4954816;29;20193;-47
2022/07/19 11:13:57;;;;;;;6.97;4.20;;;;;;;31.13;36.22;101750.75;4954907;29;20539;-47
2022/07/19 11:16:28;;;;;;;8.00;4.03;;;;;;;31.20;35.67;101737.94;4936954;29;20541;-49
2022/07/19 11:19:08;;;;;;;4.55;4.10;;;;;;;30.29;41.02;101750.69;4956280;28;20206;-47
2022/07/19 11:21:36;;;;;;;6.00;4.70;;;;;;;29.25;44.28;101756.13;4955362;29;20166;-47